Time;durP1;ratioP1;P1;durP2;ratioP2;P2;SDS_P1;SDS_P2;PMS_P1;PMS_P2;Temp;Humidity;BMP_temperature;BMP_pressure;BME280_temperature;BME280_humidity;BME280_pressure;Samples;Min_cycle;Max_cycle;Signal;HPM_P1;HPM_P2
2022/02/12 00:00:56;;;;;;;17.17;8.00;;;1.40;99.90;;;;;;2107773;28;20059;-68
2022/02/12 00:01:57;;;;;;;14.27;7.75;;;1.40;99.90;;;;;;2105829;28;20464;-68
2022/02/12 00:02:57;;;;;;;15.60;7.75;;;1.40;99.90;;;;;;2103214;28;20457;-68
2022/02/12 00:03:58;;;;;;;17.92;8.32;;;1.30;99.90;;;;;;2105628;28;20020;-68
2022/02/12 00:04:59;;;;;;;17.38;7.85;;;1.30;99.90;;;;;;2102247;28;20074;-68
2022/02/12 00:05:59;;;;;;;15.18;7.53;;;1.40;99.90;;;;;;2103920;28;20525;-68
2022/02/12 00:07:00;;;;;;;17.50;8.02;;;1.40;99.90;;;;;;2101685;28;20121;-68
2022/02/12 00:08:01;;;;;;;16.50;7.55;;;1.30;99.90;;;;;;2107016;28;20087;-68
2022/02/12 00:09:01;;;;;;;17.98;8.52;;;1.30;99.90;;;;;;2106643;28;20055;-68
2022/02/12 00:10:03;;;;;;;16.85;8.15;;;1.30;99.90;;;;;;2105509;28;20055;-68
2022/02/12 00:11:04;;;;;;;14.85;7.13;;;1.30;99.90;;;;;;2102011;28;20111;-68
2022/02/12 00:12:04;;;;;;;17.13;8.38;;;1.30;99.90;;;;;;2104187;28;20094;-68
2022/02/12 00:13:11;;;;;;;23.42;8.15;;;1.30;99.90;;;;;;2101012;28;20538;-68
2022/02/12 00:14:11;;;;;;;15.88;7.78;;;1.30;99.90;;;;;;2104369;28;20031;-68
2022/02/12 00:15:12;;;;;;;14.27;7.43;;;1.30;99.90;;;;;;2097723;28;20026;-68
2022/02/12 00:16:13;;;;;;;12.93;6.85;;;1.30;99.90;;;;;;2106273;28;20027;-68
2022/02/12 00:17:13;;;;;;;17.83;8.23;;;1.30;99.90;;;;;;2104412;28;20875;-68
2022/02/12 00:18:15;;;;;;;21.13;8.20;;;1.30;99.90;;;;;;2104651;28;21122;-68
2022/02/12 00:19:15;;;;;;;20.85;7.95;;;1.30;99.90;;;;;;2106096;28;20024;-68
2022/02/12 00:20:16;;;;;;;21.55;7.90;;;1.30;99.90;;;;;;2101311;28;20016;-68
2022/02/12 00:21:18;;;;;;;13.43;7.68;;;1.20;99.90;;;;;;2105646;28;20407;-68
2022/02/12 00:22:19;;;;;;;17.50;8.82;;;1.30;99.90;;;;;;2105655;28;20016;-68
2022/02/12 00:23:20;;;;;;;15.25;7.68;;;1.20;99.90;;;;;;2106323;28;20028;-68
2022/02/12 00:24:20;;;;;;;16.92;7.78;;;1.20;99.90;;;;;;2101767;28;20035;-68
2022/02/12 00:25:21;;;;;;;17.10;7.85;;;1.20;99.90;;;;;;2105276;28;20025;-68
2022/02/12 00:26:22;;;;;;;13.52;7.00;;;1.20;99.90;;;;;;2104058;28;20356;-68
2022/02/12 00:27:22;;;;;;;15.05;7.30;;;1.20;99.90;;;;;;2105372;28;20064;-68
2022/02/12 00:28:23;;;;;;;17.13;7.32;;;1.20;99.90;;;;;;2106863;28;20020;-68
2022/02/12 00:29:23;;;;;;;14.57;7.05;;;1.20;99.90;;;;;;2103428;28;20472;-68
2022/02/12 00:30:24;;;;;;;15.25;7.05;;;1.20;99.90;;;;;;2104094;28;20020;-68
2022/02/12 00:31:24;;;;;;;15.85;7.78;;;1.20;99.90;;;;;;2105611;28;20026;-68
2022/02/12 00:32:25;;;;;;;14.85;7.40;;;1.20;99.90;;;;;;2107529;28;20545;-68
2022/02/12 00:33:26;;;;;;;14.38;8.15;;;1.20;99.90;;;;;;2107888;28;20024;-68
2022/02/12 00:34:26;;;;;;;14.93;7.47;;;1.20;99.90;;;;;;2106853;28;20047;-68
2022/02/12 00:35:27;;;;;;;16.48;7.20;;;1.20;99.90;;;;;;2106965;28;20088;-68
2022/02/12 00:36:28;;;;;;;12.95;6.78;;;1.20;99.90;;;;;;2105541;28;20028;-68
2022/02/12 00:37:30;;;;;;;15.30;6.85;;;1.20;99.90;;;;;;2106112;28;20066;-68
2022/02/12 00:38:30;;;;;;;17.67;6.97;;;1.20;99.90;;;;;;2104134;28;20032;-68
2022/02/12 00:39:31;;;;;;;16.88;6.53;;;1.20;99.90;;;;;;2107451;28;20023;-68
2022/02/12 00:40:31;;;;;;;18.50;6.80;;;1.20;99.90;;;;;;2107729;28;20051;-68
2022/02/12 00:41:32;;;;;;;16.33;7.00;;;1.20;99.90;;;;;;2104983;28;20067;-68
2022/02/12 00:42:33;;;;;;;11.48;6.82;;;1.10;99.90;;;;;;2107486;28;20028;-68
2022/02/12 00:43:33;;;;;;;11.70;6.38;;;1.20;99.90;;;;;;2104798;28;20096;-68
2022/02/12 00:44:34;;;;;;;17.77;6.55;;;1.20;99.90;;;;;;2104535;28;20030;-68
2022/02/12 00:45:34;;;;;;;14.13;6.75;;;1.10;99.90;;;;;;2104454;28;20030;-68
2022/02/12 00:46:35;;;;;;;14.55;6.68;;;1.10;99.90;;;;;;2104550;28;20089;-68
2022/02/12 00:47:36;;;;;;;14.15;6.32;;;1.10;99.90;;;;;;2105534;28;20028;-68
2022/02/12 00:48:36;;;;;;;10.63;6.05;;;1.10;99.90;;;;;;2108339;28;20111;-68
2022/02/12 00:49:37;;;;;;;17.48;7.38;;;1.10;99.90;;;;;;2105352;28;20539;-68
2022/02/12 00:50:37;;;;;;;12.95;5.63;;;1.10;99.90;;;;;;2102356;28;20540;-69
2022/02/12 00:51:38;;;;;;;13.02;6.07;;;1.00;99.90;;;;;;2106303;28;20154;-68
2022/02/12 00:52:38;;;;;;;16.25;5.80;;;1.10;99.90;;;;;;2103312;28;20372;-68
2022/02/12 00:53:39;;;;;;;11.98;6.82;;;1.00;99.90;;;;;;2102544;28;20047;-68
2022/02/12 00:54:40;;;;;;;11.02;5.72;;;1.00;99.90;;;;;;2101365;28;20020;-68
2022/02/12 00:55:41;;;;;;;12.50;6.20;;;1.00;99.90;;;;;;2107423;28;20675;-68
2022/02/12 00:56:42;;;;;;;9.75;5.25;;;1.00;99.90;;;;;;2105572;28;20031;-68
2022/02/12 00:57:42;;;;;;;15.02;6.13;;;1.00;99.90;;;;;;2105752;28;20077;-68
2022/02/12 00:58:43;;;;;;;14.43;6.32;;;1.00;99.90;;;;;;2105553;28;20023;-68
2022/02/12 00:59:43;;;;;;;10.63;4.75;;;1.00;99.90;;;;;;2105230;28;20365;-68
2022/02/12 01:00:44;;;;;;;16.52;6.32;;;1.00;99.90;;;;;;2103972;28;20035;-68
2022/02/12 01:01:44;;;;;;;11.80;5.40;;;1.00;99.90;;;;;;2105863;28;20103;-68
2022/02/12 01:02:45;;;;;;;15.23;5.55;;;1.00;99.90;;;;;;2104758;28;20104;-68
2022/02/12 01:03:46;;;;;;;12.00;5.38;;;1.00;99.90;;;;;;2106272;28;20032;-68
2022/02/12 01:04:47;;;;;;;14.23;6.13;;;1.00;99.90;;;;;;2106180;28;20123;-68
2022/02/12 01:05:47;;;;;;;12.93;5.45;;;1.00;99.90;;;;;;2107200;28;20028;-68
2022/02/12 01:06:48;;;;;;;11.15;4.93;;;1.00;99.90;;;;;;2105490;28;20020;-68
2022/02/12 01:07:49;;;;;;;15.00;5.20;;;0.90;99.90;;;;;;2105443;28;20125;-68
2022/02/12 01:08:50;;;;;;;15.05;5.88;;;0.90;99.90;;;;;;2106666;28;20015;-68
2022/02/12 01:09:50;;;;;;;15.65;5.60;;;0.90;99.90;;;;;;2102202;28;20074;-68
2022/02/12 01:10:51;;;;;;;15.90;5.50;;;0.90;99.90;;;;;;2107356;28;20024;-68
2022/02/12 01:11:51;;;;;;;12.48;5.30;;;0.90;99.90;;;;;;2108720;28;20024;-68
2022/02/12 01:12:53;;;;;;;16.23;5.93;;;0.90;99.90;;;;;;2104725;28;20485;-68
2022/02/12 01:13:53;;;;;;;11.18;5.57;;;0.90;99.90;;;;;;2107821;28;20388;-68
2022/02/12 01:14:54;;;;;;;13.73;4.85;;;0.90;99.90;;;;;;2104979;28;20052;-68
2022/02/12 01:15:54;;;;;;;13.43;5.28;;;0.90;99.90;;;;;;2101610;28;20028;-68
2022/02/12 01:16:55;;;;;;;16.00;5.50;;;0.90;99.90;;;;;;2105523;28;20031;-68
2022/02/12 01:17:55;;;;;;;17.63;5.90;;;0.90;99.90;;;;;;2102390;28;20027;-68
2022/02/12 01:18:56;;;;;;;11.57;5.32;;;0.90;99.90;;;;;;2106666;28;20032;-68
2022/02/12 01:19:58;;;;;;;18.60;6.18;;;0.90;99.90;;;;;;2108341;28;20032;-68
2022/02/12 01:20:59;;;;;;;19.90;6.63;;;0.90;99.90;;;;;;2108491;28;20032;-68
2022/02/12 01:21:59;;;;;;;13.82;4.95;;;0.80;99.90;;;;;;2107432;28;20480;-68
2022/02/12 01:23:01;;;;;;;9.18;4.82;;;0.80;99.90;;;;;;2107104;28;20111;-68
2022/02/12 01:24:02;;;;;;;12.50;5.10;;;0.90;99.90;;;;;;2101887;28;20028;-68
2022/02/12 01:25:03;;;;;;;11.40;4.90;;;0.90;99.90;;;;;;2104799;28;20113;-68
2022/02/12 01:26:04;;;;;;;11.20;5.95;;;0.90;99.90;;;;;;2100875;28;20025;-68
2022/02/12 01:27:05;;;;;;;14.15;5.57;;;0.80;99.90;;;;;;2105486;28;20047;-68
2022/02/12 01:28:05;;;;;;;18.73;5.47;;;0.80;99.90;;;;;;2106334;28;20448;-68
2022/02/12 01:29:06;;;;;;;13.50;5.28;;;0.90;99.90;;;;;;2106092;28;20021;-68
2022/02/12 01:30:07;;;;;;;10.48;4.72;;;0.80;99.90;;;;;;2107418;28;20092;-68
2022/02/12 01:31:08;;;;;;;12.00;5.63;;;0.80;99.90;;;;;;2104042;28;20028;-68
2022/02/12 01:32:10;;;;;;;14.57;5.63;;;0.80;99.90;;;;;;2106192;28;20055;-68
2022/02/12 01:33:13;;;;;;;15.15;5.25;;;0.80;99.90;;;;;;2103974;28;20487;-68
2022/02/12 01:34:14;;;;;;;13.40;5.10;;;0.80;99.90;;;;;;2108144;28;20103;-68
2022/02/12 01:35:15;;;;;;;12.73;5.30;;;0.80;99.90;;;;;;2106915;28;20049;-68
2022/02/12 01:36:16;;;;;;;12.70;5.28;;;0.80;99.90;;;;;;2104249;28;20022;-68
2022/02/12 01:37:17;;;;;;;12.10;5.72;;;0.80;99.90;;;;;;2105476;28;20020;-68
2022/02/12 01:38:17;;;;;;;14.20;6.25;;;0.80;99.90;;;;;;2107039;28;20022;-68
2022/02/12 01:39:18;;;;;;;15.18;5.35;;;0.80;99.90;;;;;;2097495;28;20026;-68
2022/02/12 01:40:24;;;;;;;10.23;4.97;;;0.80;99.90;;;;;;2097254;28;20024;-68
2022/02/12 01:41:25;;;;;;;11.93;6.10;;;0.80;99.90;;;;;;2103066;28;20020;-68
2022/02/12 01:42:28;;;;;;;9.10;4.78;;;0.80;99.90;;;;;;2109270;28;20126;-67
2022/02/12 01:43:28;;;;;;;11.75;5.80;;;0.80;99.90;;;;;;2108539;28;20015;-68
2022/02/12 01:44:37;;;;;;;12.63;5.57;;;0.80;99.90;;;;;;2107161;28;20047;-68
2022/02/12 01:45:39;;;;;;;9.38;5.72;;;0.80;99.90;;;;;;2106278;28;20361;-68
2022/02/12 01:46:39;;;;;;;15.77;5.80;;;0.80;99.90;;;;;;2098974;28;20043;-68
2022/02/12 01:47:40;;;;;;;14.85;6.57;;;0.70;99.90;;;;;;2104873;28;20123;-68
2022/02/12 01:48:43;;;;;;;17.27;7.95;;;0.80;99.90;;;;;;2103304;28;20673;-68
2022/02/12 01:49:43;;;;;;;12.45;6.57;;;0.70;99.90;;;;;;2104280;28;20099;-68
2022/02/12 01:50:49;;;;;;;15.73;6.28;;;0.80;99.90;;;;;;2108467;28;20031;-68
2022/02/12 01:51:49;;;;;;;17.52;6.95;;;0.80;99.90;;;;;;2099289;28;20012;-68
2022/02/12 01:52:51;;;;;;;15.30;7.28;;;0.70;99.90;;;;;;2096308;28;20078;-68
2022/02/12 01:53:53;;;;;;;18.15;6.78;;;0.70;99.90;;;;;;2102773;28;20852;-68
2022/02/12 01:54:53;;;;;;;17.83;6.57;;;0.70;99.90;;;;;;2103396;28;20084;-68
2022/02/12 01:55:55;;;;;;;18.63;7.50;;;0.70;99.90;;;;;;2104898;28;20111;-68
2022/02/12 01:56:58;;;;;;;17.42;6.68;;;0.80;99.90;;;;;;2101889;28;20031;-68
2022/02/12 01:57:58;;;;;;;18.33;6.53;;;0.80;99.90;;;;;;2103544;28;20020;-68
2022/02/12 01:58:59;;;;;;;13.20;6.20;;;0.80;99.90;;;;;;2103463;28;20039;-68
2022/02/12 02:00:00;;;;;;;17.15;7.35;;;0.80;99.90;;;;;;2107027;28;20025;-68
2022/02/12 02:01:01;;;;;;;16.20;6.93;;;0.80;99.90;;;;;;2107769;28;20028;-68
2022/02/12 02:02:03;;;;;;;15.68;6.32;;;0.80;99.90;;;;;;2107243;28;20550;-68
2022/02/12 02:03:03;;;;;;;17.45;6.78;;;0.80;99.90;;;;;;2106555;28;20069;-68
2022/02/12 02:04:04;;;;;;;16.80;7.32;;;0.80;99.90;;;;;;2103342;28;20088;-68
2022/02/12 02:05:09;;;;;;;19.25;7.28;;;0.80;99.90;;;;;;2101666;28;20364;-68
2022/02/12 02:06:10;;;;;;;12.05;6.03;;;0.80;99.90;;;;;;2107975;28;20032;-68
2022/02/12 02:07:11;;;;;;;16.50;7.47;;;0.80;99.90;;;;;;2107392;28;20035;-68
2022/02/12 02:08:12;;;;;;;15.35;5.75;;;0.80;99.90;;;;;;2108609;28;20027;-68
2022/02/12 02:09:18;;;;;;;16.90;7.10;;;0.80;99.90;;;;;;2108175;28;20510;-67
2022/02/12 02:10:18;;;;;;;14.10;6.82;;;0.80;99.90;;;;;;2104526;28;20020;-68
2022/02/12 02:11:19;;;;;;;17.15;7.47;;;0.80;99.90;;;;;;2107883;28;20027;-68
2022/02/12 02:12:20;;;;;;;12.05;5.90;;;0.80;99.90;;;;;;2106429;28;20020;-68
2022/02/12 02:13:22;;;;;;;13.93;6.45;;;0.80;99.90;;;;;;2106219;28;20099;-68
2022/02/12 02:14:34;;;;;;;17.30;6.75;;;0.80;99.90;;;;;;2110082;28;20726;-68
2022/02/12 02:15:35;;;;;;;14.13;6.82;;;0.80;99.90;;;;;;2107180;28;20375;-68
2022/02/12 02:16:40;;;;;;;14.30;6.20;;;0.80;99.90;;;;;;2107494;28;20100;-68
2022/02/12 02:17:41;;;;;;;20.60;7.13;;;0.80;99.90;;;;;;2106462;28;20384;-68
2022/02/12 02:18:41;;;;;;;19.48;7.40;;;0.80;99.90;;;;;;2106735;28;20020;-68
2022/02/12 02:19:42;;;;;;;18.98;6.68;;;0.80;99.90;;;;;;2105592;28;20055;-68
2022/02/12 02:20:42;;;;;;;14.23;6.95;;;0.80;99.90;;;;;;2099005;28;20071;-67
2022/02/12 02:21:55;;;;;;;19.17;7.13;;;0.70;99.90;;;;;;2109500;28;20027;-68
2022/02/12 02:22:59;;;;;;;14.68;6.50;;;0.70;99.90;;;;;;2103535;28;20427;-67
2022/02/12 02:24:00;;;;;;;19.58;6.88;;;0.70;99.90;;;;;;2099540;28;20439;-68
2022/02/12 02:25:01;;;;;;;11.93;6.28;;;0.70;99.90;;;;;;2103551;28;20036;-68
2022/02/12 02:26:02;;;;;;;14.95;6.18;;;0.70;99.90;;;;;;2107054;28;20055;-68
2022/02/12 02:27:09;;;;;;;17.73;7.00;;;0.70;99.90;;;;;;2106243;28;20021;-68
2022/02/12 02:28:09;;;;;;;13.43;6.80;;;0.80;99.90;;;;;;2106853;28;20024;-67
2022/02/12 02:29:10;;;;;;;12.68;6.22;;;0.70;99.90;;;;;;2104001;28;20678;-67
2022/02/12 02:30:16;;;;;;;12.73;5.60;;;0.70;99.90;;;;;;2106822;28;20028;-68
2022/02/12 02:31:17;;;;;;;12.43;5.38;;;0.70;99.90;;;;;;2108834;28;20026;-68
2022/02/12 02:32:18;;;;;;;13.48;6.43;;;0.70;99.90;;;;;;2108523;28;20020;-68
2022/02/12 02:33:18;;;;;;;13.73;5.60;;;0.70;99.90;;;;;;2104931;28;20058;-68
2022/02/12 02:34:19;;;;;;;13.88;5.25;;;0.70;99.90;;;;;;2105252;28;20095;-68
2022/02/12 02:35:21;;;;;;;14.20;5.97;;;0.70;99.90;;;;;;2104931;28;20031;-68
2022/02/12 02:36:22;;;;;;;15.00;6.10;;;0.70;99.90;;;;;;2100371;28;20020;-68
2022/02/12 02:37:23;;;;;;;14.27;5.72;;;0.70;99.90;;;;;;2106282;28;20473;-68
2022/02/12 02:38:24;;;;;;;12.45;5.30;;;0.70;99.90;;;;;;2106682;28;20031;-68
2022/02/12 02:39:25;;;;;;;12.32;6.00;;;0.70;99.90;;;;;;2108012;28;20024;-68
2022/02/12 02:40:25;;;;;;;14.88;5.85;;;0.70;99.90;;;;;;2109067;28;20023;-68
2022/02/12 02:41:26;;;;;;;11.90;5.88;;;0.70;99.90;;;;;;2104345;28;20024;-68
2022/02/12 02:42:27;;;;;;;10.60;5.43;;;0.70;99.90;;;;;;2107879;28;20018;-68
2022/02/12 02:43:27;;;;;;;11.20;5.18;;;0.70;99.90;;;;;;2105498;28;20031;-68
2022/02/12 02:44:28;;;;;;;11.35;5.53;;;0.70;99.90;;;;;;2103750;28;20016;-68
2022/02/12 02:45:29;;;;;;;14.27;5.63;;;0.70;99.90;;;;;;2109722;28;20046;-67
2022/02/12 02:46:29;;;;;;;13.82;5.22;;;0.70;99.90;;;;;;2109528;28;20019;-67
2022/02/12 02:47:33;;;;;;;12.80;5.55;;;0.60;99.90;;;;;;2107692;28;20127;-67
2022/02/12 02:48:34;;;;;;;12.23;5.47;;;0.60;99.90;;;;;;2107170;28;20016;-68
2022/02/12 02:49:34;;;;;;;22.02;6.05;;;0.60;99.90;;;;;;2105338;28;20020;-68
2022/02/12 02:56:07;;;;;;;12.32;5.13;;;0.50;99.90;;;;;;2102483;28;20055;-68
2022/02/12 02:57:08;;;;;;;10.63;4.53;;;0.50;99.90;;;;;;2104596;28;20032;-68
2022/02/12 02:58:08;;;;;;;12.15;5.30;;;0.50;99.90;;;;;;2107587;28;20024;-68
2022/02/12 02:59:09;;;;;;;12.52;5.57;;;0.50;99.90;;;;;;2104187;28;20031;-68
2022/02/12 03:00:10;;;;;;;19.38;5.38;;;0.50;99.90;;;;;;2102853;28;20276;-68
2022/02/12 03:01:13;;;;;;;13.63;4.88;;;0.40;99.90;;;;;;2108606;28;20067;-68
2022/02/12 03:02:14;;;;;;;10.73;4.55;;;0.50;99.90;;;;;;2108013;28;20059;-67
2022/02/12 03:03:14;;;;;;;11.68;4.35;;;0.50;99.90;;;;;;2107906;28;20031;-67
2022/02/12 03:04:15;;;;;;;12.93;5.25;;;0.50;99.90;;;;;;2108184;28;20062;-68
2022/02/12 03:05:15;;;;;;;9.32;4.63;;;0.50;99.90;;;;;;2105552;28;20024;-68
2022/02/12 03:06:17;;;;;;;15.00;5.40;;;0.50;99.90;;;;;;2103617;28;20032;-68
2022/02/12 03:07:18;;;;;;;12.82;4.68;;;0.50;99.90;;;;;;2105645;28;20070;-68
2022/02/12 03:08:18;;;;;;;13.43;5.43;;;0.50;99.90;;;;;;2102744;28;20153;-68
2022/02/12 03:09:19;;;;;;;12.60;4.82;;;0.50;99.90;;;;;;2107488;28;20024;-68
2022/02/12 03:10:19;;;;;;;11.63;5.13;;;0.50;99.90;;;;;;2108266;28;20066;-68
2022/02/12 03:11:20;;;;;;;10.35;5.45;;;0.50;99.90;;;;;;2107708;28;20018;-68
2022/02/12 03:12:21;;;;;;;11.30;4.85;;;0.50;99.90;;;;;;2107045;28;20028;-68
2022/02/12 03:13:21;;;;;;;14.13;5.28;;;0.50;99.90;;;;;;2105579;28;20059;-68
2022/02/12 03:14:22;;;;;;;9.82;4.93;;;0.50;99.90;;;;;;2107238;28;20016;-68
2022/02/12 03:15:22;;;;;;;16.02;5.97;;;0.50;99.90;;;;;;2103118;28;20099;-68
2022/02/12 03:16:23;;;;;;;9.55;4.60;;;0.50;99.90;;;;;;2105866;28;20016;-68
2022/02/12 03:17:24;;;;;;;13.73;5.57;;;0.50;99.90;;;;;;2107880;28;20015;-68
2022/02/12 03:18:25;;;;;;;15.65;6.05;;;0.50;99.90;;;;;;2108376;28;20023;-68
2022/02/12 03:19:26;;;;;;;14.90;5.97;;;0.50;99.90;;;;;;2108980;28;20086;-68
2022/02/12 03:20:26;;;;;;;12.90;5.45;;;0.50;99.90;;;;;;2104455;28;20013;-68
2022/02/12 03:21:27;;;;;;;11.10;5.15;;;0.60;99.90;;;;;;2107654;28;20449;-68
2022/02/12 03:22:27;;;;;;;14.75;5.97;;;0.50;99.90;;;;;;2104018;28;20020;-68
2022/02/12 03:23:28;;;;;;;14.75;5.30;;;0.50;99.90;;;;;;2102642;28;20055;-68
2022/02/12 03:24:28;;;;;;;10.02;4.75;;;0.50;99.90;;;;;;2101798;28;20016;-68
2022/02/12 03:25:29;;;;;;;12.65;5.10;;;0.50;99.90;;;;;;2105359;28;20024;-67
2022/02/12 03:26:30;;;;;;;11.90;5.55;;;0.50;99.90;;;;;;2105420;28;20016;-68
2022/02/12 03:27:30;;;;;;;10.57;5.05;;;0.50;99.90;;;;;;2106256;28;20027;-68
2022/02/12 03:28:31;;;;;;;14.68;5.07;;;0.50;99.90;;;;;;2101403;28;20036;-68
2022/02/12 03:29:31;;;;;;;11.38;4.93;;;0.50;99.90;;;;;;2104817;28;20107;-68
2022/02/12 03:30:38;;;;;;;12.35;5.10;;;0.50;99.90;;;;;;2107087;28;20440;-68
2022/02/12 03:31:39;;;;;;;15.30;5.18;;;0.50;99.90;;;;;;2106548;28;20028;-68
2022/02/12 03:32:39;;;;;;;13.20;5.65;;;0.50;99.90;;;;;;2103524;28;20468;-68
2022/02/12 03:33:40;;;;;;;13.20;5.45;;;0.50;99.90;;;;;;2106438;28;20691;-68
2022/02/12 03:34:41;;;;;;;16.55;4.80;;;0.50;99.90;;;;;;2108108;28;20497;-68
2022/02/12 03:35:42;;;;;;;16.52;5.47;;;0.50;99.90;;;;;;2101805;28;20017;-67
2022/02/12 03:36:42;;;;;;;17.33;5.65;;;0.50;99.90;;;;;;2106534;28;20400;-67
2022/02/12 03:37:43;;;;;;;14.73;5.50;;;0.50;99.90;;;;;;2105732;28;20036;-68
2022/02/12 03:38:48;;;;;;;10.40;5.07;;;0.50;99.90;;;;;;2104447;28;20042;-68
2022/02/12 03:39:48;;;;;;;10.18;4.78;;;0.50;99.90;;;;;;2106279;28;20028;-68
2022/02/12 03:40:50;;;;;;;12.15;5.20;;;0.50;99.90;;;;;;2109635;28;20107;-68
2022/02/12 03:41:51;;;;;;;13.43;5.93;;;0.50;99.90;;;;;;2103257;28;20047;-68
2022/02/12 03:42:51;;;;;;;14.75;5.50;;;0.50;99.90;;;;;;2109123;28;20034;-67
2022/02/12 03:43:52;;;;;;;10.48;4.75;;;0.50;99.90;;;;;;2108348;28;20051;-68
2022/02/12 03:44:52;;;;;;;17.05;5.93;;;0.50;99.90;;;;;;2107955;28;20115;-68
2022/02/12 03:45:53;;;;;;;11.25;4.45;;;0.50;99.90;;;;;;2104566;28;20032;-68
2022/02/12 03:46:53;;;;;;;11.85;5.53;;;0.50;99.90;;;;;;2103142;28;20500;-67
2022/02/12 03:47:54;;;;;;;11.93;5.25;;;0.50;99.90;;;;;;2102564;28;20032;-68
2022/02/12 03:48:55;;;;;;;11.48;4.78;;;0.50;99.90;;;;;;2109547;28;20028;-68
2022/02/12 03:49:55;;;;;;;12.98;5.95;;;0.50;99.90;;;;;;2105965;28;20020;-68
2022/02/12 03:50:56;;;;;;;11.13;4.78;;;0.50;99.90;;;;;;2109016;28;20372;-68
2022/02/12 03:51:57;;;;;;;14.75;4.95;;;0.60;99.90;;;;;;2108268;28;20084;-68
2022/02/12 03:52:59;;;;;;;10.98;4.93;;;0.60;99.90;;;;;;2105504;28;20054;-68
2022/02/12 03:54:00;;;;;;;15.70;5.00;;;0.60;99.90;;;;;;2102885;28;20032;-68
2022/02/12 03:55:00;;;;;;;11.35;4.93;;;0.60;99.90;;;;;;2102549;28;20032;-68
2022/02/12 03:56:01;;;;;;;17.65;5.03;;;0.60;99.90;;;;;;2105936;28;20420;-68
2022/02/12 03:57:01;;;;;;;12.88;4.72;;;0.60;99.90;;;;;;2109346;28;20058;-68
2022/02/12 03:58:06;;;;;;;17.13;5.47;;;0.60;99.90;;;;;;2107883;28;20415;-68
2022/02/12 03:59:07;;;;;;;15.75;4.82;;;0.60;99.90;;;;;;2108359;28;20025;-68
2022/02/12 04:00:12;;;;;;;13.52;5.40;;;0.60;99.90;;;;;;2107093;28;20064;-68
2022/02/12 04:01:12;;;;;;;14.32;5.38;;;0.70;99.90;;;;;;2106343;28;20122;-68
2022/02/12 04:02:13;;;;;;;15.32;5.22;;;0.60;99.90;;;;;;2104172;28;20015;-68
2022/02/12 04:03:14;;;;;;;14.85;5.20;;;0.60;99.90;;;;;;2102819;28;20073;-68
2022/02/12 04:04:14;;;;;;;12.80;5.47;;;0.70;99.90;;;;;;2106675;28;20024;-68
2022/02/12 04:05:16;;;;;;;16.10;4.93;;;0.70;99.90;;;;;;2107083;28;20407;-68
2022/02/12 04:06:16;;;;;;;15.48;5.72;;;0.70;99.90;;;;;;2103041;28;20484;-68
2022/02/12 04:07:17;;;;;;;10.35;5.28;;;0.70;99.90;;;;;;2105946;28;20380;-68
2022/02/12 04:08:18;;;;;;;13.50;4.97;;;0.70;99.90;;;;;;2104238;28;20024;-68
2022/02/12 04:09:19;;;;;;;13.38;5.47;;;0.70;99.90;;;;;;2105281;28;20027;-68
2022/02/12 04:10:20;;;;;;;17.30;6.18;;;0.80;99.90;;;;;;2101960;28;20020;-68
2022/02/12 04:11:21;;;;;;;11.93;5.22;;;0.80;99.90;;;;;;2105021;28;20130;-68
2022/02/12 04:12:21;;;;;;;14.10;5.20;;;0.80;99.90;;;;;;2106045;28;20084;-68
2022/02/12 04:13:22;;;;;;;10.70;5.38;;;0.80;99.90;;;;;;2107337;28;20447;-68
2022/02/12 04:14:23;;;;;;;15.00;5.43;;;0.80;99.90;;;;;;2107258;28;20024;-68
2022/02/12 04:15:27;;;;;;;15.70;5.90;;;0.80;99.90;;;;;;2102723;28;20024;-68
2022/02/12 04:16:27;;;;;;;13.32;5.70;;;0.80;99.90;;;;;;2104064;28;20013;-68
2022/02/12 04:17:32;;;;;;;17.70;5.72;;;0.80;99.90;;;;;;2105749;28;20051;-68
2022/02/12 04:18:32;;;;;;;15.80;5.18;;;0.80;99.90;;;;;;2102804;28;20027;-68
2022/02/12 04:19:33;;;;;;;15.93;5.32;;;0.90;99.90;;;;;;2102460;28;20028;-68
2022/02/12 04:20:34;;;;;;;11.95;5.60;;;0.80;99.90;;;;;;2106718;28;20486;-68
2022/02/12 04:21:34;;;;;;;14.60;5.90;;;0.80;99.90;;;;;;2107921;28;20020;-68
2022/02/12 04:22:36;;;;;;;12.82;5.65;;;0.90;99.90;;;;;;2102555;28;20020;-68
2022/02/12 04:23:36;;;;;;;18.05;5.70;;;0.90;99.90;;;;;;2097818;28;20065;-68
2022/02/12 04:24:37;;;;;;;20.00;6.22;;;0.90;99.90;;;;;;2102197;28;20081;-68
2022/02/12 04:25:37;;;;;;;10.90;5.18;;;0.90;99.90;;;;;;2102381;28;20373;-68
2022/02/12 04:26:38;;;;;;;16.40;5.03;;;1.00;99.90;;;;;;2104295;28;20024;-68
2022/02/12 04:27:39;;;;;;;19.40;6.32;;;1.00;99.90;;;;;;2103487;28;20028;-68
2022/02/12 04:28:39;;;;;;;20.52;6.15;;;1.00;99.90;;;;;;2105261;28;20035;-68
2022/02/12 04:29:40;;;;;;;14.82;5.70;;;1.00;99.90;;;;;;2106683;28;20026;-68
2022/02/12 04:30:41;;;;;;;16.40;5.43;;;1.00;99.90;;;;;;2106495;28;20432;-68
2022/02/12 04:31:41;;;;;;;14.52;5.28;;;1.00;99.90;;;;;;2105359;28;20016;-68
2022/02/12 04:32:43;;;;;;;14.13;6.00;;;1.10;99.90;;;;;;2105872;28;20108;-68
2022/02/12 04:33:44;;;;;;;14.27;5.50;;;1.10;99.90;;;;;;2102993;28;20073;-68
2022/02/12 04:34:44;;;;;;;16.85;5.55;;;1.10;99.90;;;;;;2103895;28;20036;-68
2022/02/12 04:35:45;;;;;;;16.38;5.38;;;1.10;99.90;;;;;;2100404;28;20036;-68
2022/02/12 04:36:45;;;;;;;15.20;5.63;;;1.10;99.90;;;;;;2103732;28;20077;-68
2022/02/12 04:37:46;;;;;;;14.90;5.22;;;1.10;99.90;;;;;;2104228;28;20541;-68
2022/02/12 04:38:46;;;;;;;16.73;5.55;;;1.10;99.90;;;;;;2105850;28;20019;-68
2022/02/12 04:39:47;;;;;;;15.57;4.97;;;1.10;99.90;;;;;;2105698;28;20112;-68
2022/02/12 04:40:48;;;;;;;13.00;5.10;;;1.20;99.90;;;;;;2103527;28;20025;-68
2022/02/12 04:41:48;;;;;;;16.27;5.38;;;1.20;99.90;;;;;;2103567;28;20029;-68
2022/02/12 04:42:49;;;;;;;16.88;5.32;;;1.10;99.90;;;;;;2103726;28;20044;-68
2022/02/12 04:43:50;;;;;;;15.07;5.25;;;1.20;99.90;;;;;;2100829;28;20028;-68
2022/02/12 04:44:53;;;;;;;13.13;5.85;;;1.20;99.90;;;;;;2106197;28;20032;-68
2022/02/12 04:45:53;;;;;;;16.40;5.22;;;1.20;99.90;;;;;;2097489;28;20361;-68
2022/02/12 04:46:54;;;;;;;18.20;5.32;;;1.20;99.90;;;;;;2105511;28;20113;-67
2022/02/12 04:47:54;;;;;;;11.38;5.05;;;1.20;99.90;;;;;;2105162;28;20608;-68
2022/02/12 04:48:55;;;;;;;11.60;4.88;;;1.20;99.90;;;;;;2103124;28;20032;-68
2022/02/12 04:49:55;;;;;;;18.98;5.65;;;1.30;99.90;;;;;;2104760;28;20433;-68
2022/02/12 04:50:56;;;;;;;14.68;4.80;;;1.20;99.90;;;;;;2102496;28;20024;-68
2022/02/12 04:51:57;;;;;;;16.85;5.55;;;1.30;99.90;;;;;;2101536;28;20037;-68
2022/02/12 04:52:57;;;;;;;13.95;5.22;;;1.30;99.90;;;;;;2106822;28;20480;-68
2022/02/12 04:53:59;;;;;;;17.40;5.55;;;1.30;99.90;;;;;;2105751;28;20028;-68
2022/02/12 04:54:59;;;;;;;11.63;5.38;;;1.30;99.90;;;;;;2103701;28;20025;-68
2022/02/12 04:56:00;;;;;;;10.63;4.93;;;1.30;99.90;;;;;;2105541;28;20031;-68
2022/02/12 04:57:00;;;;;;;14.52;5.30;;;1.30;99.90;;;;;;2102361;28;20040;-68
2022/02/12 04:58:01;;;;;;;13.85;5.65;;;1.30;99.90;;;;;;2104852;28;20034;-68
2022/02/12 04:59:01;;;;;;;22.35;5.40;;;1.30;99.90;;;;;;2101334;28;20123;-68
2022/02/12 05:00:04;;;;;;;13.80;5.43;;;1.30;99.90;;;;;;2105577;28;20028;-68
2022/02/12 05:01:05;;;;;;;19.10;5.43;;;1.30;99.90;;;;;;2107593;28;20039;-68
2022/02/12 05:02:05;;;;;;;12.38;5.05;;;1.30;99.90;;;;;;2105303;28;20025;-68
2022/02/12 05:03:06;;;;;;;12.57;4.63;;;1.30;99.90;;;;;;2103883;28;20028;-68
2022/02/12 05:04:06;;;;;;;13.13;4.90;;;1.30;99.90;;;;;;2105190;28;20028;-68
2022/02/12 05:05:08;;;;;;;15.55;5.60;;;1.30;99.90;;;;;;2102388;28;20034;-68
2022/02/12 05:06:08;;;;;;;16.75;5.47;;;1.30;99.90;;;;;;2105998;28;20024;-68
2022/02/12 05:07:09;;;;;;;14.68;5.93;;;1.30;99.90;;;;;;2102925;28;20445;-68
2022/02/12 05:08:10;;;;;;;15.13;5.10;;;1.30;99.90;;;;;;2109653;28;20035;-68
2022/02/12 05:09:11;;;;;;;15.52;5.20;;;1.30;99.90;;;;;;2109708;28;20028;-68
2022/02/12 05:10:12;;;;;;;11.15;4.90;;;1.30;99.90;;;;;;2105661;28;20020;-68
2022/02/12 05:11:13;;;;;;;19.42;6.00;;;1.30;99.90;;;;;;2107219;28;20047;-68
2022/02/12 05:12:13;;;;;;;10.25;5.28;;;1.30;99.90;;;;;;2107023;28;20107;-68
2022/02/12 05:13:14;;;;;;;15.10;5.43;;;1.30;99.90;;;;;;2105343;28;20019;-68
2022/02/12 05:14:15;;;;;;;13.50;4.50;;;1.30;99.90;;;;;;2107724;28;20399;-68
2022/02/12 05:15:16;;;;;;;15.00;5.13;;;1.30;99.90;;;;;;2104768;28;20031;-68
2022/02/12 05:16:16;;;;;;;14.63;5.18;;;1.30;99.90;;;;;;2110083;28;20088;-68
2022/02/12 05:17:17;;;;;;;13.48;5.70;;;1.30;99.90;;;;;;2110054;28;20015;-68
2022/02/12 05:18:17;;;;;;;12.85;5.20;;;1.30;99.90;;;;;;2107905;28;20011;-68
2022/02/12 05:19:18;;;;;;;12.52;4.70;;;1.30;99.90;;;;;;2106113;28;20500;-68
2022/02/12 05:20:19;;;;;;;13.93;5.03;;;1.30;99.90;;;;;;2102007;28;20054;-68
2022/02/12 05:21:19;;;;;;;11.02;5.15;;;1.30;99.90;;;;;;2103564;28;20487;-68
2022/02/12 05:22:20;;;;;;;13.73;4.85;;;1.30;99.90;;;;;;2107038;28;20028;-68
2022/02/12 05:23:21;;;;;;;9.98;4.47;;;1.30;99.90;;;;;;2104808;28;20030;-68
2022/02/12 05:24:21;;;;;;;16.13;5.65;;;1.30;99.90;;;;;;2107017;28;20419;-68